createdAt,value
2019-02-16T00:00:10.003Z,-0.60
2019-02-16T00:03:23.497Z,-0.57
2019-02-16T00:06:36.962Z,-0.60
2019-02-16T00:09:50.441Z,-0.59
2019-02-16T00:13:04.012Z,-0.62
2019-02-16T00:16:17.824Z,-0.60
2019-02-16T00:19:31.329Z,-0.59
2019-02-16T00:22:44.920Z,-0.60
2019-02-16T00:25:58.903Z,-0.61
2019-02-16T00:29:12.379Z,-0.64
2019-02-16T00:32:25.861Z,-0.64
2019-02-16T00:35:39.325Z,-0.65
2019-02-16T00:38:54.254Z,-0.77
2019-02-16T00:42:07.896Z,-0.79
2019-02-16T00:45:21.388Z,-0.85
2019-02-16T00:48:34.848Z,-0.82
2019-02-16T00:51:48.597Z,-0.90
2019-02-16T00:55:02.226Z,-0.89
2019-02-16T00:58:15.696Z,-0.97
2019-02-16T01:01:29.181Z,-0.93
2019-02-16T01:04:42.666Z,-0.88
2019-02-16T01:07:56.555Z,-0.86
2019-02-16T01:11:10.035Z,-0.86
2019-02-16T01:14:23.512Z,-0.85
2019-02-16T01:17:36.998Z,-0.87
2019-02-16T01:20:50.493Z,-0.91
2019-02-16T01:24:04.192Z,-0.92
2019-02-16T01:27:17.689Z,-0.91
2019-02-16T01:30:31.184Z,-0.94
2019-02-16T01:33:45.618Z,-0.95
2019-02-16T01:36:59.343Z,-1.02
2019-02-16T01:40:12.841Z,-1.18
2019-02-16T01:43:26.355Z,-1.34
2019-02-16T01:46:39.843Z,-1.21
2019-02-16T01:49:53.319Z,-1.28
2019-02-16T01:53:07.139Z,-1.22
2019-02-16T01:56:20.625Z,-1.21
2019-02-16T01:59:34.123Z,-1.20
2019-02-16T02:02:47.714Z,-1.18
2019-02-16T02:06:01.299Z,-1.19
2019-02-16T02:09:15.107Z,-1.25
2019-02-16T02:12:28.587Z,-1.29
2019-02-16T02:15:42.332Z,-1.26
2019-02-16T02:18:55.827Z,-1.25
2019-02-16T02:22:09.325Z,-1.24
2019-02-16T02:25:22.800Z,-1.27
2019-02-16T02:28:36.680Z,-1.35
2019-02-16T02:31:50.167Z,-1.40
2019-02-16T02:35:04.177Z,-1.37
2019-02-16T02:38:17.665Z,-1.47
2019-02-16T02:41:31.766Z,-1.43
2019-02-16T02:44:45.566Z,-1.41
2019-02-16T02:47:59.383Z,-1.39
2019-02-16T02:51:13.509Z,-1.37
2019-02-16T02:54:27.109Z,-1.51
2019-02-16T02:57:40.587Z,-1.60
2019-02-16T03:00:54.355Z,-1.63
2019-02-16T03:04:07.847Z,-1.58
2019-02-16T03:07:21.840Z,-1.60
2019-02-16T03:10:35.309Z,-1.52
2019-02-16T03:13:49.079Z,-1.49
2019-02-16T03:17:02.821Z,-1.61
2019-02-16T03:20:16.610Z,-1.55
2019-02-16T03:23:30.517Z,-1.59
2019-02-16T03:27:20.673Z,-1.58
2019-02-16T03:31:03.100Z,-1.55
2019-02-16T03:34:20.680Z,-1.57
2019-02-16T03:38:07.640Z,-1.65
2019-02-16T03:41:21.121Z,-1.64
2019-02-16T03:44:34.900Z,-1.62
2019-02-16T03:47:48.503Z,-1.61
2019-02-16T03:51:01.985Z,-1.60
2019-02-16T03:54:15.842Z,-1.64
2019-02-16T03:57:29.443Z,-1.65
2019-02-16T04:00:42.920Z,-1.66
2019-02-16T04:03:56.413Z,-1.53
2019-02-16T04:07:09.897Z,-1.63
2019-02-16T04:10:23.374Z,-1.84
2019-02-16T04:13:36.856Z,-1.91
2019-02-16T04:16:50.348Z,-1.84
2019-02-16T04:20:04.931Z,-1.82
2019-02-16T04:23:18.649Z,-1.75
2019-02-16T04:26:32.356Z,-1.68
2019-02-16T04:29:45.836Z,-1.66
2019-02-16T04:32:59.306Z,-1.86
2019-02-16T04:36:12.784Z,-1.80
2019-02-16T04:39:26.260Z,-1.77
2019-02-16T04:42:39.851Z,-1.77
2019-02-16T04:45:53.335Z,-1.75
2019-02-16T04:49:06.825Z,-1.75
2019-02-16T04:52:20.296Z,-2.02
2019-02-16T04:55:33.827Z,-1.91
2019-02-16T04:58:47.406Z,-1.93
2019-02-16T05:02:01.187Z,-1.83
2019-02-16T05:05:14.683Z,-1.88
2019-02-16T05:08:28.163Z,-1.91
2019-02-16T05:11:41.759Z,-1.92
2019-02-16T05:14:55.235Z,-2.09
2019-02-16T05:18:08.712Z,-2.07
2019-02-16T05:21:22.202Z,-2.01
2019-02-16T05:24:35.681Z,-1.96
2019-02-16T05:27:49.167Z,-1.91
2019-02-16T05:31:02.759Z,-1.97
2019-02-16T05:34:16.336Z,-2.01
2019-02-16T05:37:30.592Z,-2.01
2019-02-16T05:40:44.176Z,-2.08
2019-02-16T05:43:57.981Z,-2.05
2019-02-16T05:47:11.563Z,-2.02
2019-02-16T05:50:25.042Z,-2.07
2019-02-16T05:53:38.535Z,-2.09
2019-02-16T05:56:52.024Z,-2.07
2019-02-16T06:00:07.085Z,-2.17
2019-02-16T06:03:20.568Z,-2.18
2019-02-16T06:06:34.057Z,-2.17
2019-02-16T06:09:47.633Z,-2.25
2019-02-16T06:13:01.122Z,-2.35
2019-02-16T06:16:14.594Z,-2.33
2019-02-16T06:19:28.080Z,-2.33
2019-02-16T06:22:41.831Z,-2.33
2019-02-16T06:25:55.296Z,-2.28
2019-02-16T06:29:08.780Z,-2.28
2019-02-16T06:32:22.268Z,-2.27
2019-02-16T06:36:04.445Z,-2.26
2019-02-16T06:39:18.235Z,-2.42
2019-02-16T06:42:31.731Z,-2.41
2019-02-16T06:45:45.191Z,-2.34
2019-02-16T06:48:59.131Z,-2.33
2019-02-16T06:52:12.704Z,-2.26
2019-02-16T06:55:33.842Z,-2.23
2019-02-16T06:58:47.592Z,-2.20
2019-02-16T07:02:01.170Z,-2.24
2019-02-16T07:05:14.663Z,-2.27
2019-02-16T07:08:28.144Z,-2.24
2019-02-16T07:11:41.618Z,-2.20
2019-02-16T07:14:55.118Z,-2.15
2019-02-16T07:18:22.188Z,-2.17
2019-02-16T07:21:35.663Z,-2.15
2019-02-16T07:24:49.162Z,-2.11
2019-02-16T07:28:02.887Z,-2.07
2019-02-16T07:31:16.381Z,-2.20
2019-02-16T07:34:29.948Z,-2.20
2019-02-16T07:37:43.521Z,-2.15
2019-02-16T07:40:57.022Z,-2.13
2019-02-16T07:44:22.084Z,-2.08
2019-02-16T07:47:55.238Z,-2.02
2019-02-16T07:51:15.067Z,-1.98
2019-02-16T07:54:37.747Z,-2.03
2019-02-16T07:58:13.437Z,-2.00
2019-02-16T08:01:39.394Z,-1.98
2019-02-16T08:05:01.774Z,-1.87
2019-02-16T08:08:21.590Z,-1.71
2019-02-16T08:11:41.806Z,-1.57
2019-02-16T08:15:01.239Z,-1.37
2019-02-16T08:18:43.499Z,-1.29
2019-02-16T08:22:15.520Z,-1.14
2019-02-16T08:25:51.804Z,-1.01
2019-02-16T08:29:14.603Z,-0.83
2019-02-16T08:32:47.028Z,-0.60
2019-02-16T08:36:09.878Z,-0.36
2019-02-16T08:39:45.723Z,-0.14
2019-02-16T08:43:16.598Z,0.09
2019-02-16T08:46:48.607Z,0.31
2019-02-16T08:50:17.177Z,0.56
2019-02-16T08:53:55.933Z,0.81
2019-02-16T08:57:24.219Z,1.12
2019-02-16T09:00:56.265Z,1.45
2019-02-16T09:04:24.894Z,1.78
2019-02-16T09:07:49.878Z,2.12
2019-02-16T09:11:15.767Z,2.51
2019-02-16T09:14:48.892Z,2.84
2019-02-16T09:18:10.524Z,3.02
2019-02-16T09:21:56.231Z,3.26
2019-02-16T09:25:17.335Z,3.54
2019-02-16T09:28:48.946Z,3.95
2019-02-16T09:32:30.731Z,4.36
2019-02-16T09:35:55.698Z,4.64
2019-02-16T09:39:31.542Z,5.01
2019-02-16T09:42:50.663Z,5.29
2019-02-16T09:46:23.799Z,5.66
2019-02-16T09:49:57.047Z,5.87
2019-02-16T09:53:23.390Z,6.22
2019-02-16T09:56:56.533Z,6.57
2019-02-16T10:00:32.470Z,6.90
2019-02-16T10:04:08.607Z,7.22
2019-02-16T10:07:41.760Z,7.52
2019-02-16T10:11:13.890Z,7.71
2019-02-16T10:14:34.367Z,7.96
2019-02-16T10:18:06.991Z,8.27
2019-02-16T10:21:39.111Z,8.46
2019-02-16T10:25:05.860Z,8.87
2019-02-16T10:28:37.471Z,9.12
2019-02-16T10:32:08.584Z,9.37
2019-02-16T10:35:40.231Z,9.74
2019-02-16T10:39:13.068Z,10.23
2019-02-16T10:42:50.409Z,10.60
2019-02-16T10:46:26.384Z,11.16
2019-02-16T10:49:58.608Z,11.49
2019-02-16T10:53:29.604Z,11.71
2019-02-16T10:57:08.349Z,12.00
2019-02-16T11:00:40.108Z,12.38
2019-02-16T11:04:03.127Z,12.83
2019-02-16T11:07:36.265Z,13.30
2019-02-16T11:11:01.589Z,13.81
2019-02-16T11:14:40.995Z,14.40
2019-02-16T11:18:21.601Z,14.66
2019-02-16T11:22:04.559Z,14.94
2019-02-16T11:25:31.514Z,15.22
2019-02-16T11:29:17.332Z,15.63
2019-02-16T11:32:56.257Z,15.88
2019-02-16T11:36:21.846Z,16.19
2019-02-16T11:39:51.511Z,15.48
2019-02-16T11:43:41.131Z,15.13
2019-02-16T11:47:16.781Z,15.52
2019-02-16T11:50:45.554Z,16.12
2019-02-16T11:54:18.979Z,16.51
2019-02-16T11:57:47.755Z,16.80
2019-02-16T12:01:29.830Z,17.05
2019-02-16T12:04:53.346Z,17.46
2019-02-16T12:08:11.633Z,18.34
2019-02-16T12:11:42.366Z,18.79
2019-02-16T12:15:10.305Z,19.07
2019-02-16T12:18:35.398Z,19.53
2019-02-16T12:22:07.307Z,20.04
2019-02-16T12:25:46.486Z,20.43
2019-02-16T12:29:19.620Z,20.93
2019-02-16T12:33:07.927Z,21.47
2019-02-16T12:36:39.767Z,21.20
2019-02-16T12:40:03.956Z,20.44
2019-02-16T12:43:35.577Z,20.45
2019-02-16T12:47:09.162Z,20.58
2019-02-16T12:50:34.023Z,20.59
2019-02-16T12:54:02.072Z,20.25
2019-02-16T12:57:25.625Z,19.89
2019-02-16T13:00:55.898Z,19.58
2019-02-16T13:04:27.515Z,19.51
2019-02-16T13:08:00.994Z,19.58
2019-02-16T13:11:28.857Z,19.68
2019-02-16T13:14:58.167Z,19.82
2019-02-16T13:18:19.203Z,19.95
2019-02-16T13:21:52.351Z,20.08
2019-02-16T13:25:24.094Z,20.09
2019-02-16T13:29:11.408Z,20.36
2019-02-16T13:32:43.419Z,20.57
2019-02-16T13:36:04.879Z,20.51
2019-02-16T13:39:38.034Z,20.77
2019-02-16T13:42:59.137Z,20.99
2019-02-16T13:46:32.392Z,20.89
2019-02-16T13:49:52.564Z,20.78
2019-02-16T13:53:28.717Z,20.59
2019-02-16T13:56:58.077Z,20.41
2019-02-16T14:00:43.676Z,20.34
2019-02-16T14:04:24.419Z,20.30
2019-02-16T14:07:49.708Z,20.16
2019-02-16T14:11:21.511Z,20.07
2019-02-16T14:15:03.383Z,20.26
2019-02-16T14:18:17.203Z,20.11
2019-02-16T14:21:30.790Z,19.87
2019-02-16T14:24:47.363Z,19.78
2019-02-16T14:28:01.190Z,19.68
2019-02-16T14:31:17.854Z,19.63
2019-02-16T14:34:31.436Z,19.59
2019-02-16T14:37:50.553Z,19.53
2019-02-16T14:41:04.805Z,19.49
2019-02-16T14:44:18.613Z,19.13
2019-02-16T14:47:32.112Z,18.85
2019-02-16T14:50:45.751Z,18.67
2019-02-16T14:54:00.485Z,18.01
2019-02-16T14:57:13.981Z,17.67
2019-02-16T15:00:27.808Z,16.86
2019-02-16T15:03:41.281Z,16.19
2019-02-16T15:06:55.043Z,15.67
2019-02-16T15:10:09.105Z,15.15
2019-02-16T15:13:22.897Z,14.84
2019-02-16T15:16:36.385Z,14.68
2019-02-16T15:19:50.040Z,14.48
2019-02-16T15:23:04.133Z,14.34
2019-02-16T15:26:17.830Z,14.16
2019-02-16T15:29:31.300Z,13.97
2019-02-16T15:32:46.307Z,13.82
2019-02-16T15:36:00.232Z,13.66
2019-02-16T15:39:13.671Z,13.59
2019-02-16T15:42:27.140Z,13.54
2019-02-16T15:45:41.159Z,13.37
2019-02-16T15:48:54.720Z,13.15
2019-02-16T15:52:08.698Z,13.13
2019-02-16T15:55:22.868Z,12.98
2019-02-16T15:58:36.751Z,12.84
2019-02-16T16:01:50.763Z,12.59
2019-02-16T16:05:05.172Z,12.22
2019-02-16T16:08:39.186Z,12.05
2019-02-16T16:12:13.054Z,11.64
2019-02-16T16:15:42.318Z,11.09
2019-02-16T16:19:05.365Z,10.99
2019-02-16T16:22:27.694Z,10.86
2019-02-16T16:25:52.031Z,10.70
2019-02-16T16:29:37.399Z,10.54
2019-02-16T16:33:03.318Z,10.34
2019-02-16T16:36:33.954Z,9.94
2019-02-16T16:39:55.195Z,9.65
2019-02-16T16:43:20.852Z,9.40
2019-02-16T16:46:52.494Z,9.22
2019-02-16T16:50:18.763Z,9.06
2019-02-16T16:53:49.021Z,8.80
2019-02-16T16:57:22.560Z,8.59
2019-02-16T17:01:05.115Z,8.38
2019-02-16T17:04:24.252Z,8.17
2019-02-16T17:07:47.281Z,7.88
2019-02-16T17:11:18.856Z,7.70
2019-02-16T17:14:38.848Z,7.55
2019-02-16T17:18:11.997Z,7.32
2019-02-16T17:21:51.395Z,7.17
2019-02-16T17:25:24.765Z,6.99
2019-02-16T17:28:52.325Z,6.67
2019-02-16T17:32:13.808Z,6.47
2019-02-16T17:35:46.970Z,6.40
2019-02-16T17:39:18.547Z,6.24
2019-02-16T17:42:51.682Z,6.01
2019-02-16T17:46:24.406Z,5.68
2019-02-16T17:49:47.231Z,5.54
2019-02-16T17:53:10.068Z,5.39
2019-02-16T17:56:46.826Z,5.34
2019-02-16T18:00:03.995Z,5.10
2019-02-16T18:03:36.425Z,4.93
2019-02-16T18:07:01.800Z,4.75
2019-02-16T18:10:28.240Z,4.61
2019-02-16T18:14:01.794Z,4.37
2019-02-16T18:17:34.123Z,4.17
2019-02-16T18:21:05.669Z,4.04
2019-02-16T18:24:35.979Z,3.93
2019-02-16T18:28:16.967Z,3.94
2019-02-16T18:31:55.929Z,3.84
2019-02-16T18:35:27.503Z,3.67
2019-02-16T18:39:06.263Z,3.58
2019-02-16T18:42:38.319Z,3.50
2019-02-16T18:46:26.450Z,3.40
2019-02-16T18:50:01.115Z,3.41
2019-02-16T18:53:25.816Z,3.28
2019-02-16T18:57:06.365Z,3.19
2019-02-16T19:00:39.733Z,3.05
2019-02-16T19:04:24.533Z,2.90
2019-02-16T19:08:00.511Z,2.89
2019-02-16T19:11:25.725Z,2.86
2019-02-16T19:14:57.540Z,2.82
2019-02-16T19:18:18.799Z,2.69
2019-02-16T19:21:54.706Z,2.61
2019-02-16T19:25:15.107Z,2.59
2019-02-16T19:28:51.094Z,2.62
2019-02-16T19:32:24.244Z,2.64
2019-02-16T19:36:12.864Z,2.54
2019-02-16T19:39:34.071Z,2.52
2019-02-16T19:42:56.276Z,2.45
2019-02-16T19:46:23.017Z,2.39
2019-02-16T19:49:57.294Z,2.17
2019-02-16T19:53:36.313Z,2.06
2019-02-16T19:57:09.489Z,1.99
2019-02-16T20:00:41.372Z,1.95
2019-02-16T20:04:14.512Z,1.93
2019-02-16T20:07:56.584Z,1.88
2019-02-16T20:11:35.358Z,1.83
2019-02-16T20:15:08.481Z,1.75
2019-02-16T20:18:31.465Z,1.69
2019-02-16T20:21:59.005Z,1.68
2019-02-16T20:25:22.215Z,1.66
2019-02-16T20:29:13.874Z,1.66
2019-02-16T20:32:52.951Z,1.58
2019-02-16T20:36:25.056Z,1.51
2019-02-16T20:40:04.069Z,1.37
2019-02-16T20:43:26.440Z,1.41
2019-02-16T20:46:50.149Z,1.33
2019-02-16T20:50:26.493Z,1.29
2019-02-16T20:53:49.029Z,1.13
2019-02-16T20:57:15.463Z,1.04
2019-02-16T21:00:47.506Z,1.01
2019-02-16T21:04:12.061Z,1.00
2019-02-16T21:07:37.302Z,1.04
2019-02-16T21:11:20.089Z,1.02
2019-02-16T21:15:08.084Z,1.08
2019-02-16T21:18:36.649Z,1.04
2019-02-16T21:22:16.155Z,0.98
2019-02-16T21:25:52.783Z,0.95
2019-02-16T21:29:33.004Z,0.95
2019-02-16T21:33:09.285Z,0.92
2019-02-16T21:36:30.190Z,0.94
2019-02-16T21:39:54.782Z,0.83
2019-02-16T21:43:37.316Z,0.74
2019-02-16T21:47:19.412Z,0.71
2019-02-16T21:51:04.814Z,0.70
2019-02-16T21:54:24.617Z,0.68
2019-02-16T21:58:08.155Z,0.62
2019-02-16T22:01:28.872Z,0.62
2019-02-16T22:05:17.319Z,0.58
2019-02-16T22:08:50.475Z,0.54
2019-02-16T22:12:33.070Z,0.58
2019-02-16T22:15:46.463Z,0.46
2019-02-16T22:18:59.924Z,0.50
2019-02-16T22:22:13.791Z,0.55
2019-02-16T22:25:27.370Z,0.49
2019-02-16T22:28:40.832Z,0.45
2019-02-16T22:31:54.307Z,0.39
2019-02-16T22:35:08.714Z,0.35
2019-02-16T22:38:22.184Z,0.36
2019-02-16T22:41:35.792Z,0.27
2019-02-16T22:44:49.256Z,0.36
2019-02-16T22:48:03.465Z,0.38
2019-02-16T22:51:16.970Z,0.37
2019-02-16T22:54:30.414Z,0.35
2019-02-16T22:57:44.001Z,0.27
2019-02-16T23:00:57.570Z,0.22
2019-02-16T23:04:11.036Z,0.18
2019-02-16T23:07:24.624Z,0.18
2019-02-16T23:10:38.655Z,0.13
2019-02-16T23:13:52.324Z,0.10
2019-02-16T23:17:06.260Z,0.11
2019-02-16T23:20:19.738Z,0.07
2019-02-16T23:23:33.311Z,0.02
2019-02-16T23:26:46.894Z,0.03
2019-02-16T23:30:00.465Z,-0.05
2019-02-16T23:33:14.163Z,-0.04
2019-02-16T23:36:27.646Z,-0.08
2019-02-16T23:39:41.117Z,-0.13
2019-02-16T23:42:54.584Z,-0.04
2019-02-16T23:46:08.052Z,-0.08
2019-02-16T23:49:21.965Z,-0.07
2019-02-16T23:52:35.641Z,-0.09
2019-02-16T23:55:49.100Z,-0.18
2019-02-16T23:59:02.677Z,-0.13
